Latest Weather Observations for Port Lincoln Airport

IDS60801

Issued at 9:31 am CST Sunday 5 July 2015 (issued every 30 minutes, with the page automatically refreshed every 10 minutes)

About weather observations | Map of weather stations | Latest weather observations for SA | Other Formats
Station Details ID: 018192 Name: PORT LINCOLN AWS Lat: -34.60 Lon: 135.88 Height: 8.5 m
Data from the previous 72 hours. | See also: Recent months at Port Lincoln Airport
Date/Time
CST
Temp
°C
App
Temp
°C
Dew
Point
Rel
Hum
%
Delta-T
°C
Wind Press
QNH
hPa
Press
MSL
hPa
Rain
since 9 am
mm
Dir
 
Spd
km/h
Gust
km/h
Spd
kts
Gust
kts
05/09:30am 12.5 6.7 6.3 66 2.9 NNW 26 32 14 17 1018.9 1018.9 0.0
05/09:00am 11.0 5.4 5.5 69 2.5 NNW 24 32 13 17 1018.8 1018.8 0.0
05/08:30am 10.2 4.5 4.8 69 2.4 NNW 24 32 13 17 1018.9 1018.9 0.0
05/08:00am 9.5 4.2 4.9 73 2.1 NNW 22 28 12 15 1018.7 1018.7 0.0
05/07:30am 9.2 4.4 4.6 73 2.0 NNW 19 26 10 14 1018.9 1018.9 0.0
05/07:00am 8.8 4.0 4.4 74 1.9 NNW 19 26 10 14 1018.8 1018.8 0.0
05/06:30am 9.4 3.6 4.4 71 2.2 NW 24 30 13 16 1018.6 1018.6 0.0
05/06:00am 9.7 4.9 4.7 71 2.2 NNW 19 26 10 14 1018.7 1018.7 0.0
05/05:30am 8.3 6.1 5.1 80 1.4 N 6 11 3 6 1018.9 1018.9 0.0
05/05:00am 8.6 5.8 5.0 78 1.6 N 9 13 5 7 1018.9 1018.9 0.0
05/04:30am 8.2 5.9 5.0 80 1.4 NNW 6 11 3 6 1018.8 1018.8 0.0
05/04:00am 8.6 5.5 5.4 80 1.4 N 11 13 6 7 1019.0 1019.0 0.0
05/03:30am 8.2 5.4 5.3 82 1.3 NNW 9 15 5 8 1019.3 1019.3 0.0
05/03:00am 7.8 4.8 5.8 87 0.9 NW 11 15 6 8 1019.5 1019.5 0.0
05/02:30am 8.4 5.0 6.0 85 1.1 NW 13 17 7 9 1019.7 1019.7 0.0
05/02:00am 9.2 6.3 6.6 84 1.2 NW 11 17 6 9 1019.5 1019.5 0.0
05/01:30am 8.5 6.6 6.8 89 0.8 NW 6 9 3 5 1019.6 1019.6 0.0
05/01:00am 8.5 6.1 7.0 90 0.7 WNW 9 11 5 6 1019.8 1019.8 0.0
05/12:30am 8.5 5.7 7.0 90 0.7 WNW 11 15 6 8 1020.0 1020.0 0.0
05/12:00am 8.9 5.3 6.9 87 0.9 NW 15 19 8 10 1020.2 1020.2 0.0
 
Date/Time
CST
Temp
°C
App
Temp
°C
Dew
Point
Rel
Hum
%
Delta-T
°C
Wind Press
QNH
hPa
Press
MSL
hPa
Rain
since 9 am
mm
Dir
 
Spd
km/h
Gust
km/h
Spd
kts
Gust
kts
04/11:30pm 8.2 4.9 6.5 89 0.8 NW 13 17 7 9 1020.5 1020.5 0.0
04/11:00pm 9.5 5.7 7.4 87 1.0 NW 17 22 9 12 1020.9 1020.9 0.0
04/10:30pm 9.1 5.6 7.4 89 0.8 NW 15 20 8 11 1020.9 1020.9 0.0
04/10:00pm 8.8 5.3 7.4 91 0.7 NW 15 19 8 10 1021.0 1021.0 0.0
04/09:30pm 8.9 5.1 7.4 90 0.7 NNW 17 20 9 11 1021.1 1021.1 0.0
04/09:00pm 9.1 5.6 7.2 88 0.9 NNW 15 19 8 10 1021.1 1021.1 0.0
04/08:30pm 9.5 6.2 7.9 90 0.8 NNW 15 17 8 9 1021.2 1021.2 0.0
04/08:00pm 9.4 6.1 8.2 92 0.6 NW 15 19 8 10 1021.2 1021.2 0.0
04/07:30pm 9.8 7.0 8.4 91 0.7 NNW 13 17 7 9 1021.2 1021.2 0.0
04/07:00pm 10.4 7.3 8.8 90 0.8 NNW 15 17 8 9 1021.3 1021.3 0.0
04/06:30pm 10.9 8.6 9.0 88 0.9 NNW 11 17 6 9 1021.2 1021.2 0.0
04/06:00pm 11.7 9.1 9.3 85 1.2 WNW 13 15 7 8 1021.1 1021.1 0.0
04/05:30pm 12.5 9.9 9.3 81 1.6 WNW 13 15 7 8 1021.3 1021.3 0.0
04/05:00pm 14.1 11.2 9.5 74 2.4 WNW 15 20 8 11 1021.2 1021.2 0.0
04/04:30pm 16.1 13.3 10.0 67 3.2 NW 15 20 8 11 1021.0 1021.0 0.0
04/04:00pm 16.8 13.3 8.8 59 4.1 WNW 17 22 9 12 1020.9 1020.9 0.0
04/03:30pm 17.5 13.7 9.2 58 4.3 NW 19 24 10 13 1020.7 1020.7 0.0
04/03:00pm 17.6 12.9 7.6 52 5.0 NW 22 28 12 15 1020.7 1020.7 0.0
04/02:30pm 17.7 14.0 9.3 58 4.4 WNW 19 26 10 14 1020.7 1020.7 0.0
04/02:00pm 17.9 14.2 10.0 60 4.2 NW 20 24 11 13 1021.0 1021.0 0.0
04/01:30pm 17.6 13.8 9.0 57 4.4 NW 19 24 10 13 1021.2 1021.2 0.0
04/01:00pm 17.5 13.4 8.6 56 4.6 NW 20 24 11 13 1021.7 1021.7 0.0
04/12:30pm 17.3 13.1 8.4 56 4.5 NW 20 26 11 14 1022.0 1022.0 0.0
04/12:00pm 16.9 13.0 9.6 62 3.8 NNW 20 28 11 15 1022.4 1022.4 0.0
04/11:30am 16.4 12.6 8.9 61 3.8 NNW 19 28 10 15 1023.0 1023.0 0.0
04/11:00am 15.9 12.2 10.0 68 3.1 NNW 20 28 11 15 1023.5 1023.5 0.0
04/10:30am 14.8 10.6 9.8 72 2.6 NNW 22 30 12 16 1023.7 1023.7 0.0
04/10:00am 13.8 10.6 9.8 77 2.1 NNW 17 22 9 12 1023.8 1023.8 0.0
04/09:30am 13.0 10.8 9.4 79 1.8 NNW 11 17 6 9 1023.7 1023.7 0.0
04/09:00am 10.8 8.1 7.5 80 1.6 N 11 13 6 7 1023.6 1023.6 0.0
04/08:30am 8.7 5.4 6.3 85 1.1 N 13 17 7 9 1023.7 1023.7 0.0
04/08:00am 8.9 6.0 6.3 84 1.2 NNW 11 17 6 9 1023.5 1023.5 0.0
04/07:30am 9.0 5.3 6.1 82 1.3 NW 15 19 8 10 1023.3 1023.3 0.0
04/07:00am 8.8 5.1 6.4 85 1.1 NNW 15 19 8 10 1023.0 1023.0 0.0
04/06:30am 8.9 5.3 6.9 87 0.9 NW 15 19 8 10 1023.0 1023.0 0.0
04/06:00am 9.2 5.7 7.0 86 1.0 NNW 15 17 8 9 1022.8 1022.8 0.0
04/05:30am 8.3 4.7 6.8 90 0.7 NNW 15 19 8 10 1022.8 1022.8 0.0
04/05:00am 7.6 3.8 5.9 89 0.8 NNW 15 17 8 9 1022.8 1022.8 0.0
04/04:30am 8.1 3.7 6.7 91 0.6 NNW 19 20 10 11 1022.9 1022.9 0.0
04/04:00am 7.0 4.4 5.9 93 0.5 NW 9 13 5 7 1023.1 1023.1 0.0
04/03:30am 7.6 4.4 6.7 94 0.4 NNW 13 17 7 9 1023.2 1023.2 0.0
04/03:00am 7.2 4.3 6.5 95 0.3 NNW 11 15 6 8 1023.3 1023.3 0.0
04/02:30am 7.0 3.7 6.3 95 0.3 NW 13 15 7 8 1023.5 1023.5 0.0
04/02:00am 6.9 3.9 6.2 95 0.3 NW 11 15 6 8 1023.6 1023.6 0.0
04/01:30am 7.2 3.9 6.5 95 0.3 NW 13 17 7 9 1023.8 1023.8 0.0
04/01:00am 7.5 5.1 6.8 95 0.3 NW 9 11 5 6 1023.9 1023.9 0.0
04/12:30am 7.8 5.4 7.1 95 0.3 NW 9 11 5 6 1024.3 1024.3 0.0
04/12:00am 8.4 5.8 7.6 95 0.4 NW 11 13 6 7 1024.6 1024.6 0.0
 
Date/Time
CST
Temp
°C
App
Temp
°C
Dew
Point
Rel
Hum
%
Delta-T
°C
Wind Press
QNH
hPa
Press
MSL
hPa
Rain
since 9 am
mm
Dir
 
Spd
km/h
Gust
km/h
Spd
kts
Gust
kts
03/11:30pm 8.2 5.6 7.6 96 0.3 NW 11 15 6 8 1024.8 1024.8 0.0
03/11:00pm 7.8 4.3 7.4 97 0.2 NW 15 17 8 9 1025.0 1025.0 0.0
03/10:30pm 7.7 3.8 7.1 96 0.3 NW 17 19 9 10 1025.0 1025.0 0.0
03/10:00pm 8.1 5.1 7.8 98 0.1 WNW 13 17 7 9 1025.1 1025.1 0.0
03/09:30pm 7.1 3.9 6.7 97 0.2 WNW 13 15 7 8 1025.2 1025.2 0.0
03/09:00pm 7.6 5.2 7.2 97 0.2 NW 9 11 5 6 1025.3 1025.3 0.0
03/08:30pm 7.4 5.0 6.8 96 0.3 NW 9 13 5 7 1025.6 1025.6 0.0
03/08:00pm 7.6 5.7 6.9 95 0.3 NNW 6 7 3 4 1025.5 1025.5 0.0
03/07:30pm 10.4 9.0 9.6 95 0.4 N 7 11 4 6 1025.4 1025.4 0.0
03/07:00pm 9.6 8.9 8.5 93 0.5 NNW 2 9 1 5 1025.3 1025.3 0.0
03/06:30pm 11.7 11.9 10.4 92 0.7 CALM 0 0 0 0 1025.1 1025.1 0.0
03/06:00pm 12.3 12.1 10.5 89 0.9 ESE 2 7 1 4 1024.9 1024.9 0.0
03/05:30pm 13.9 14.0 10.3 79 1.9 CALM 0 0 0 0 1024.9 1024.9 0.0
03/05:00pm 15.3 14.3 10.9 75 2.3 NW 7 9 4 5 1025.0 1025.0 0.0
03/04:30pm 15.8 14.9 11.2 74 2.5 NNW 7 9 4 5 1024.8 1024.8 0.0
03/04:00pm 15.7 14.2 10.5 71 2.7 W 9 15 5 8 1025.1 1025.1 0.0
03/03:30pm 15.8 13.4 10.1 69 3.0 WNW 13 17 7 9 1025.1 1025.1 0.0
03/03:00pm 15.6 12.7 9.7 68 3.0 NW 15 20 8 11 1025.2 1025.2 0.0
03/02:30pm 15.8 12.2 9.7 67 3.2 NW 19 20 10 11 1025.5 1025.5 0.0
03/02:00pm 15.6 12.9 10.4 71 2.7 NW 15 20 8 11 1025.7 1025.7 0.0
03/01:30pm 15.6 12.4 9.9 69 3.0 NNW 17 22 9 12 1026.0 1026.0 0.0
03/01:00pm 15.4 12.3 10.4 72 2.6 NW 17 22 9 12 1026.5 1026.5 0.0
03/12:30pm 15.7 12.4 9.6 67 3.1 NNW 17 22 9 12 1027.0 1027.0 0.0
03/12:00pm 15.2 12.4 8.7 65 3.3 NNW 13 17 7 9 1027.6 1027.6 0.0
03/11:30am 14.3 11.5 8.5 68 2.9 NNW 13 17 7 9 1028.0 1028.0 0.0
03/11:00am 14.5 11.4 8.7 68 2.9 NNW 15 22 8 12 1028.3 1028.3 0.0
03/10:30am 14.1 11.4 10.3 78 2.0 N 15 20 8 11 1028.6 1028.6 0.0
03/10:00am 12.2 9.8 9.9 86 1.2 NW 13 17 7 9 1028.7 1028.7 0.0
03/09:30am 10.7 7.7 9.1 90 0.8 NNW 15 20 8 11 1028.5 1028.5 0.0
03/09:00am 10.0 8.0 8.8 92 0.6 WNW 9 13 5 7 1028.4 1028.4 0.0
03/08:30am 9.2 6.7 8.1 93 0.5 NW 11 13 6 7 1028.2 1028.2 0.0
03/08:00am 8.5 5.5 7.7 95 0.4 NW 13 15 7 8 1028.2 1028.2 0.0
03/07:30am 8.3 5.3 7.5 95 0.4 NW 13 15 7 8 1028.0 1028.0 0.0
03/07:00am 8.2 5.9 7.6 96 0.3 NNW 9 15 5 8 1027.7 1027.7 0.0
03/06:30am 7.9 5.2 7.3 96 0.3 NNW 11 17 6 9 1027.9 1027.9 0.0
03/06:00am 7.7 5.3 7.1 96 0.3 NW 9 9 5 5 1028.0 1028.0 0.0
03/05:30am 7.7 5.7 7.1 96 0.3 NW 7 7 4 4 1027.9 1027.9 0.0
03/05:00am 7.2 5.1 6.6 96 0.3 NW 7 11 4 6 1028.1 1028.1 0.0
03/04:30am 7.4 5.3 6.7 95 0.3 NW 7 11 4 6 1028.1 1028.1 0.0
03/04:00am 8.4 6.1 7.6 95 0.4 WNW 9 9 5 5 1028.2 1028.2 0.0
03/03:30am 8.7 6.5 7.9 95 0.4 WNW 9 13 5 7 1028.6 1028.6 0.0
03/03:00am 8.1 5.7 7.2 94 0.4 NW 9 11 5 6 1028.9 1028.9 0.0
03/02:30am 9.1 6.6 8.3 95 0.4 NW 11 13 6 7 1029.3 1029.3 0.0
03/02:00am 8.5 5.6 8.1 97 0.2 NW 13 17 7 9 1029.5 1029.5 0.0
03/01:30am 7.5 4.7 6.9 96 0.3 NW 11 13 6 7 1029.3 1029.3 0.0
03/01:00am 7.1 4.6 6.4 95 0.3 NW 9 11 5 6 1029.5 1029.5 0.0
03/12:30am 7.1 4.6 6.5 96 0.3 NW 9 11 5 6 1029.7 1029.7 0.0
03/12:00am 7.6 4.8 7.0 96 0.3 NW 11 13 6 7 1030.0 1030.0 0.0
 
Date/Time
CST
Temp
°C
App
Temp
°C
Dew
Point
Rel
Hum
%
Delta-T
°C
Wind Press
QNH
hPa
Press
MSL
hPa
Rain
since 9 am
mm
Dir
 
Spd
km/h
Gust
km/h
Spd
kts
Gust
kts
02/11:30pm 7.5 4.7 7.1 97 0.2 WNW 11 15 6 8 1030.3 1030.3 0.0
02/11:00pm 6.9 3.6 6.3 96 0.3 WNW 13 17 7 9 1030.4 1030.4 0.0
02/10:30pm 7.6 4.8 6.9 95 0.3 NW 11 13 6 7 1030.5 1030.5 0.0
02/10:00pm 7.5 4.4 7.1 97 0.2 NW 13 17 7 9 1030.6 1030.6 0.0
02/09:30pm 6.4 3.7 5.8 96 0.3 NW 9 13 5 7 1030.5 1030.5 0.0
02/09:00pm 6.6 3.2 5.9 95 0.3 NW 13 15 7 8 1030.5 1030.5 0.0
02/08:30pm 6.4 3.7 5.7 95 0.3 WNW 9 13 5 7 1030.6 1030.6 0.0
02/08:00pm 7.4 4.2 6.8 96 0.3 WNW 13 15 7 8 1030.5 1030.5 0.0
02/07:30pm 7.5 4.7 6.9 96 0.3 WNW 11 13 6 7 1030.4 1030.4 0.0
02/07:00pm 7.2 6.3 6.0 92 0.5 CALM 0 0 0 0 1030.2 1030.2 0.0
02/06:30pm 9.4 8.3 6.7 83 1.2 E 2 6 1 3 1029.8 1029.8 0.0
02/06:00pm 11.6 9.5 8.3 80 1.6 E 9 11 5 6 1029.7 1029.7 0.0
02/05:30pm 12.5 10.6 9.0 79 1.7 ESE 9 11 5 6 1029.4 1029.4 0.0
02/05:00pm 13.6 10.9 9.1 74 2.3 ESE 13 15 7 8 1029.5 1029.5 0.0
02/04:30pm 14.0 10.6 9.2 73 2.4 ESE 17 20 9 11 1029.5 1029.5 0.0
02/04:00pm 15.0 12.6 10.0 72 2.6 SE 13 15 7 8 1029.5 1029.5 0.0
02/03:30pm 14.4 11.9 9.6 73 2.5 SE 13 17 7 9 1029.5 1029.5 0.0
02/03:00pm 14.6 11.7 9.8 73 2.5 SE 15 17 8 9 1029.4 1029.4 0.0
02/02:30pm 15.3 12.5 9.9 70 2.8 SE 15 20 8 11 1029.3 1029.3 0.0
02/02:00pm 15.1 13.4 9.9 71 2.7 E 9 13 5 7 1029.4 1029.4 0.0
02/01:30pm 14.6 13.5 10.6 77 2.1 S 7 11 4 6 1029.8 1029.8 0.0
02/01:00pm 14.8 12.3 11.0 78 2.0 SSE 15 19 8 10 1030.1 1030.1 0.0
02/12:30pm 15.0 12.4 12.0 82 1.6 SSE 17 20 9 11 1030.2 1030.2 0.0
02/12:00pm 14.6 11.8 12.5 87 1.1 S 19 24 10 13 1030.7 1030.7 0.0
02/11:50am 14.5 11.7 12.5 88 1.1 SSE 19 26 10 14 1030.8 1030.8 0.0
02/11:40am 14.1 11.1 12.5 90 0.9 S 20 26 11 14 1030.9 1030.9 0.0
02/11:30am 14.2 11.9 13.1 93 0.6 S 17 20 9 11 1031.1 1031.1 0.0
02/11:29am 14.2 11.9 13.1 93 0.6 S 17 20 9 11 1031.1 1031.1 0.0
02/11:11am 14.2 11.3 12.4 89 1.0 SSW 19 22 10 12 1031.1 1031.1 0.0
02/11:00am 15.2 13.5 12.5 84 1.5 SSE 13 20 7 11 1030.8 1030.8 0.0
02/10:38am 15.1 12.7 12.8 86 1.3 S 17 20 9 11 1030.5 1030.5 0.0
02/10:30am 14.8 11.9 12.3 85 1.4 S 19 24 10 13 1030.5 1030.5 0.0
02/10:24am 14.7 11.7 12.0 84 1.5 S 19 24 10 13 1030.4 1030.4 0.0
02/10:00am 15.5 13.8 12.6 83 1.6 WSW 13 17 7 9 1030.3 1030.3 0.0

Other Formats:

Comma delimited format used in spreadsheet applications
http://www.bom.gov.au/fwo/IDS60801/IDS60801.95661.axf

JavaScript Object Notation format (JSON) in row-major order
http://www.bom.gov.au/fwo/IDS60801/IDS60801.95661.json